Hillcrest, Florida
Current Conditions -  °F | °C
As of 6:53 AM on Monday 22 Dec 2014 (Local Time) from KHWO Reporting Station
Clear Clear  
Wind Chill: 19°   Ceiling: Unl
Heat Index: 19°   Visibility: 10mi
Dew Point: 17°   Wind: 6mph
Humidity: 90%   Direction: 120°ESE
Pressure: 30.02"   Gusts: NA
Location:  26.0179°N, 80.2031°W
Report Text: KHWO 221153Z 12005KT 10SM CLR 19/17 A3002 RMK AO2 SLP165 T01890172 10211 20178 56005
Loading
Personal Weather Stations






























Interactive Weather Map New forecast layout! Learn more

10-Day Weather Forecast

Advertisements
Track Severe Weather on mobile